createdAt,value
2023-03-07T00:00:10.837Z,-1.6
2023-03-07T00:01:17.988Z,-1.5
2023-03-07T00:02:25.142Z,-1.5
2023-03-07T00:03:32.369Z,-1.5
2023-03-07T00:04:38.758Z,-1.6
2023-03-07T00:05:45.988Z,-1.5
2023-03-07T00:06:52.990Z,-1.6
2023-03-07T00:08:00.052Z,-1.5
2023-03-07T00:09:07.148Z,-1.6
2023-03-07T00:10:14.333Z,-1.5
2023-03-07T00:11:20.808Z,-1.5
2023-03-07T00:12:27.981Z,-1.4
2023-03-07T00:13:35.119Z,-1.4
2023-03-07T00:14:42.235Z,-1.3
2023-03-07T00:15:49.371Z,-1.3
2023-03-07T00:16:55.832Z,-1.3
2023-03-07T00:18:02.998Z,-1.3
2023-03-07T00:19:10.211Z,-1.2
2023-03-07T00:20:17.179Z,-1.2
2023-03-07T00:21:24.407Z,-1.2
2023-03-07T00:22:30.916Z,-1.1
2023-03-07T00:23:37.936Z,-1.1
2023-03-07T00:24:45.110Z,-1.1
2023-03-07T00:25:52.166Z,-1.1
2023-03-07T00:28:05.886Z,-1
2023-03-07T00:29:13.032Z,-1
2023-03-07T00:30:20.202Z,-1
2023-03-07T00:31:27.499Z,-1
2023-03-07T00:32:34.463Z,-1
2023-03-07T00:33:40.875Z,-1
2023-03-07T00:34:48.019Z,-1
2023-03-07T00:35:55.155Z,-0.9
2023-03-07T00:37:02.215Z,-0.9
2023-03-07T00:38:09.305Z,-0.9
2023-03-07T00:39:15.905Z,-0.8
2023-03-07T00:40:23.224Z,-0.8
2023-03-07T00:41:30.125Z,-0.8
2023-03-07T00:42:37.276Z,-0.8
2023-03-07T00:43:44.377Z,-0.8
2023-03-07T00:44:50.856Z,-0.7
2023-03-07T00:45:58.085Z,-0.7
2023-03-07T00:47:05.173Z,-0.7
2023-03-07T00:49:19.393Z,-0.7
2023-03-07T00:50:26.089Z,-0.7
2023-03-07T00:51:33.057Z,-0.8
2023-03-07T00:52:40.072Z,-0.8
2023-03-07T00:53:47.284Z,-0.8
2023-03-07T00:54:54.386Z,-0.8
2023-03-07T00:56:00.915Z,-0.8
2023-03-07T00:57:08.047Z,-0.8
2023-03-07T00:58:15.195Z,-0.7
2023-03-07T00:59:22.313Z,-0.7
2023-03-07T01:00:29.345Z,-0.7
2023-03-07T01:01:35.947Z,-0.7
2023-03-07T01:02:43.060Z,-0.7
2023-03-07T01:03:50.168Z,-0.7
2023-03-07T01:04:57.308Z,-0.7
2023-03-07T01:06:04.379Z,-0.7
2023-03-07T01:07:10.994Z,-0.7
2023-03-07T01:08:18.097Z,-0.7
2023-03-07T01:09:25.184Z,-0.7
2023-03-07T01:10:32.336Z,-0.7
2023-03-07T01:11:39.388Z,-0.7
2023-03-07T01:12:46.040Z,-0.7
2023-03-07T01:13:53.122Z,-0.6
2023-03-07T01:15:00.155Z,-0.7
2023-03-07T01:16:07.261Z,-0.7
2023-03-07T01:17:14.355Z,-0.7
2023-03-07T01:18:20.953Z,-0.7
2023-03-07T01:19:28.001Z,-0.7
2023-03-07T01:20:35.241Z,-0.7
2023-03-07T01:21:42.383Z,-0.7
2023-03-07T01:22:48.915Z,-0.7
2023-03-07T01:23:55.942Z,-0.7
2023-03-07T01:25:03.099Z,-0.7
2023-03-07T01:26:10.165Z,-0.6
2023-03-07T01:27:17.298Z,-0.7
2023-03-07T01:28:23.920Z,-0.6
2023-03-07T01:29:30.969Z,-0.6
2023-03-07T01:31:45.225Z,-0.6
2023-03-07T01:32:52.411Z,-0.6
2023-03-07T01:33:58.942Z,-0.6
2023-03-07T01:35:05.951Z,-0.6
2023-03-07T01:36:13.235Z,-0.6
2023-03-07T01:37:20.417Z,-0.5
2023-03-07T01:38:27.301Z,-0.5
2023-03-07T01:39:34.470Z,-0.5
2023-03-07T01:40:41.043Z,-0.5
2023-03-07T01:41:48.091Z,-0.5
2023-03-07T01:42:55.239Z,-0.6
2023-03-07T01:44:02.345Z,-0.6
2023-03-07T01:45:08.889Z,-0.6
2023-03-07T01:46:16.069Z,-0.7
2023-03-07T01:47:23.138Z,-0.7
2023-03-07T01:48:30.265Z,-0.7
2023-03-07T01:49:37.849Z,-0.8
2023-03-07T01:50:43.918Z,-0.9
2023-03-07T01:51:51.097Z,-1
2023-03-07T01:52:58.144Z,-1
2023-03-07T01:54:05.303Z,-1.1
2023-03-07T01:55:12.361Z,-1.1
2023-03-07T01:56:18.888Z,-1.1
2023-03-07T01:57:25.981Z,-1
2023-03-07T01:58:33.158Z,-1
2023-03-07T01:59:40.214Z,-1
2023-03-07T02:00:47.296Z,-1
2023-03-07T02:01:53.988Z,-1
2023-03-07T02:03:01.032Z,-0.9
2023-03-07T02:04:08.213Z,-0.9
2023-03-07T02:05:15.201Z,-0.9
2023-03-07T02:06:22.356Z,-0.9
2023-03-07T02:07:28.911Z,-0.8
2023-03-07T02:08:36.105Z,-0.8
2023-03-07T02:09:43.155Z,-0.8
2023-03-07T02:10:50.180Z,-0.8
2023-03-07T02:11:57.383Z,-0.8
2023-03-07T02:13:04.520Z,-0.8
2023-03-07T02:14:10.968Z,-0.8
2023-03-07T02:15:18.065Z,-0.8
2023-03-07T02:17:32.364Z,-0.9
2023-03-07T02:18:38.961Z,-0.9
2023-03-07T02:19:45.992Z,-0.9
2023-03-07T02:20:53.153Z,-1
2023-03-07T02:22:00.547Z,-1
2023-03-07T02:23:07.445Z,-1
2023-03-07T02:24:14.012Z,-1
2023-03-07T02:25:21.057Z,-1.1
2023-03-07T02:26:28.080Z,-1.2
2023-03-07T02:27:35.280Z,-1.2
2023-03-07T02:28:42.479Z,-1.3
2023-03-07T02:29:48.933Z,-1.3
2023-03-07T02:30:56.612Z,-1.3
2023-03-07T02:32:03.255Z,-1.3
2023-03-07T02:33:10.299Z,-1.3
2023-03-07T02:35:23.992Z,-1.4
2023-03-07T02:36:31.076Z,-1.5
2023-03-07T02:37:38.118Z,-1.5
2023-03-07T02:38:45.417Z,-1.6
2023-03-07T02:39:52.350Z,-1.6
2023-03-07T02:40:58.961Z,-1.6
2023-03-07T02:42:06.036Z,-1.6
2023-03-07T02:43:13.184Z,-1.6
2023-03-07T02:44:20.260Z,-1.7
2023-03-07T02:45:27.385Z,-1.7
2023-03-07T02:46:34.093Z,-1.8
2023-03-07T02:47:41.086Z,-1.8
2023-03-07T02:48:48.170Z,-1.9
2023-03-07T02:49:55.324Z,-1.9
2023-03-07T02:51:02.419Z,-1.8
2023-03-07T02:52:08.964Z,-1.8
2023-03-07T02:53:17.311Z,-1.7
2023-03-07T02:54:23.193Z,-1.6
2023-03-07T02:55:30.285Z,-1.5
2023-03-07T02:56:37.463Z,-1.4
2023-03-07T02:57:44.025Z,-1.3
2023-03-07T02:58:51.047Z,-1.3
2023-03-07T02:59:58.212Z,-1.2
2023-03-07T03:01:05.239Z,-1.1
2023-03-07T03:02:12.385Z,-1
2023-03-07T03:03:19.117Z,-1.1
2023-03-07T03:04:26.184Z,-1
2023-03-07T03:05:33.173Z,-1
2023-03-07T03:06:40.258Z,-0.9
2023-03-07T03:07:47.455Z,-0.9
2023-03-07T03:08:54.026Z,-0.9
2023-03-07T03:10:01.121Z,-0.9
2023-03-07T03:11:08.200Z,-0.9
2023-03-07T03:12:15.283Z,-0.9
2023-03-07T03:13:22.413Z,-0.9
2023-03-07T03:14:28.991Z,-0.9
2023-03-07T03:15:36.142Z,-1
2023-03-07T03:16:43.239Z,-1
2023-03-07T03:17:50.391Z,-0.9
2023-03-07T03:18:57.450Z,-1
2023-03-07T03:20:03.992Z,-1
2023-03-07T03:21:11.187Z,-1
2023-03-07T03:22:18.165Z,-1
2023-03-07T03:23:25.443Z,-1
2023-03-07T03:24:32.439Z,-0.9
2023-03-07T03:25:40.230Z,-0.9
2023-03-07T03:26:46.106Z,-0.9
2023-03-07T03:27:53.259Z,-0.9
2023-03-07T03:29:00.305Z,-0.9
2023-03-07T03:30:07.483Z,-0.9
2023-03-07T03:31:14.008Z,-0.9
2023-03-07T03:32:21.182Z,-1
2023-03-07T03:33:28.333Z,-0.9
2023-03-07T03:34:35.316Z,-1
2023-03-07T03:35:42.525Z,-0.9
2023-03-07T03:36:48.981Z,-0.9
2023-03-07T03:39:03.268Z,-1
2023-03-07T03:40:10.484Z,-1
2023-03-07T03:41:17.414Z,-1
2023-03-07T03:42:24.043Z,-1
2023-03-07T03:43:31.194Z,-1
2023-03-07T03:45:45.384Z,-1
2023-03-07T03:46:52.506Z,-1
2023-03-07T03:47:59.106Z,-1
2023-03-07T03:49:06.191Z,-1
2023-03-07T03:50:13.302Z,-1
2023-03-07T03:51:20.381Z,-1
2023-03-07T03:52:27.480Z,-1
2023-03-07T03:53:34.189Z,-0.9
2023-03-07T03:54:41.136Z,-0.9
2023-03-07T03:55:48.254Z,-0.9
2023-03-07T03:56:55.373Z,-0.9
2023-03-07T03:58:02.596Z,-0.9
2023-03-07T03:59:09.062Z,-0.9
2023-03-07T04:00:16.262Z,-0.9
2023-03-07T04:01:23.361Z,-0.9
2023-03-07T04:02:30.721Z,-0.8
2023-03-07T04:03:37.518Z,-0.8
2023-03-07T04:04:44.110Z,-0.8
2023-03-07T04:05:51.225Z,-0.8
2023-03-07T04:06:58.274Z,-0.8
2023-03-07T04:08:05.410Z,-0.8
2023-03-07T04:09:12.474Z,-0.8
2023-03-07T04:10:19.072Z,-0.8
2023-03-07T04:11:26.216Z,-0.8
2023-03-07T04:12:33.339Z,-0.8
2023-03-07T04:13:40.386Z,-0.9
2023-03-07T04:14:47.523Z,-0.9
2023-03-07T04:15:54.094Z,-0.9
2023-03-07T04:17:01.188Z,-0.9
2023-03-07T04:18:08.230Z,-1
2023-03-07T04:19:15.374Z,-1
2023-03-07T04:20:22.015Z,-1.1
2023-03-07T04:21:29.606Z,-1
2023-03-07T04:22:36.227Z,-1.1
2023-03-07T04:23:43.318Z,-1.1
2023-03-07T04:24:50.456Z,-1.1
2023-03-07T04:25:57.611Z,-1.2
2023-03-07T04:27:04.146Z,-1.2
2023-03-07T04:28:11.311Z,-1.3
2023-03-07T04:29:18.257Z,-1.3
2023-03-07T04:30:25.464Z,-1.3
2023-03-07T04:31:32.548Z,-1.3
2023-03-07T04:32:39.179Z,-1.4
2023-03-07T04:33:46.241Z,-1.5
2023-03-07T04:34:53.388Z,-1.5
2023-03-07T04:36:00.502Z,-1.5
2023-03-07T04:37:07.046Z,-1.6
2023-03-07T04:38:14.222Z,-1.6
2023-03-07T04:39:21.195Z,-1.6
2023-03-07T04:40:28.275Z,-1.6
2023-03-07T04:42:41.982Z,-1.6
2023-03-07T04:43:49.189Z,-1.6
2023-03-07T04:44:56.221Z,-1.6
2023-03-07T04:46:03.440Z,-1.6
2023-03-07T04:47:10.457Z,-1.6
2023-03-07T04:48:17.155Z,-1.6
2023-03-07T04:49:24.197Z,-1.6
2023-03-07T04:50:31.182Z,-1.6
2023-03-07T04:51:38.322Z,-1.6
2023-03-07T04:52:45.424Z,-1.5
2023-03-07T04:53:52.081Z,-1.5
2023-03-07T04:54:59.085Z,-1.5
2023-03-07T04:56:06.280Z,-1.5
2023-03-07T04:57:13.320Z,-1.5
2023-03-07T04:58:20.450Z,-1.5
2023-03-07T04:59:27.016Z,-1.5
2023-03-07T05:00:34.696Z,-1.5
2023-03-07T05:01:41.427Z,-1.5
2023-03-07T05:02:48.305Z,-1.5
2023-03-07T05:03:55.493Z,-1.5
2023-03-07T05:05:02.096Z,-1.5
2023-03-07T05:06:09.186Z,-1.5
2023-03-07T05:07:16.334Z,-1.5
2023-03-07T05:08:23.431Z,-1.5
2023-03-07T05:09:30.477Z,-1.5
2023-03-07T05:10:37.029Z,-1.6
2023-03-07T05:11:44.170Z,-1.6
2023-03-07T05:13:58.379Z,-1.6
2023-03-07T05:15:05.535Z,-1.7
2023-03-07T05:16:12.119Z,-1.8
2023-03-07T05:17:19.193Z,-1.8
2023-03-07T05:18:26.372Z,-1.9
2023-03-07T05:19:33.368Z,-1.9
2023-03-07T05:20:40.482Z,-1.9
2023-03-07T05:21:47.046Z,-2
2023-03-07T05:22:54.300Z,-2
2023-03-07T05:24:01.236Z,-2
2023-03-07T05:25:08.388Z,-2
2023-03-07T05:26:15.463Z,-2
2023-03-07T05:27:22.114Z,-2
2023-03-07T05:28:29.179Z,-2.1
2023-03-07T05:29:36.260Z,-2.1
2023-03-07T05:30:43.449Z,-2.1
2023-03-07T05:31:50.538Z,-2.2
2023-03-07T05:32:57.212Z,-2.2
2023-03-07T05:34:04.189Z,-2.2
2023-03-07T05:35:11.275Z,-2.2
2023-03-07T05:36:18.494Z,-2.2
2023-03-07T05:37:25.524Z,-2.2
2023-03-07T05:38:32.196Z,-2.2
2023-03-07T05:39:39.142Z,-2.2
2023-03-07T05:40:46.270Z,-2.2
2023-03-07T05:41:53.469Z,-2.1
2023-03-07T05:43:00.524Z,-2
2023-03-07T05:44:07.077Z,-1.9
2023-03-07T05:46:21.338Z,-1.8
2023-03-07T05:47:28.360Z,-1.8
2023-03-07T05:48:35.590Z,-1.6
2023-03-07T05:49:42.676Z,-1.6
2023-03-07T05:50:49.157Z,-1.6
2023-03-07T05:51:56.430Z,-1.5
2023-03-07T05:53:03.403Z,-1.4
2023-03-07T05:54:10.476Z,-1.4
2023-03-07T05:55:17.097Z,-1.3
2023-03-07T05:56:24.276Z,-1.3
2023-03-07T05:57:31.278Z,-1.3
2023-03-07T05:58:38.542Z,-1.3
2023-03-07T05:59:45.622Z,-1.3
2023-03-07T06:00:52.199Z,-1.3
2023-03-07T06:01:59.306Z,-1.3
2023-03-07T06:03:06.416Z,-1.3
2023-03-07T06:04:13.438Z,-1.3
2023-03-07T06:05:20.490Z,-1.3
2023-03-07T06:06:27.099Z,-1.3
2023-03-07T06:07:34.266Z,-1.3
2023-03-07T06:08:41.349Z,-1.3
2023-03-07T06:09:48.474Z,-1.3
2023-03-07T06:10:56.623Z,-1.3
2023-03-07T06:12:02.161Z,-1.3
2023-03-07T06:13:09.269Z,-1.4
2023-03-07T06:14:16.366Z,-1.4
2023-03-07T06:15:24.696Z,-1.4
2023-03-07T06:16:30.570Z,-1.4
2023-03-07T06:17:38.247Z,-1.4
2023-03-07T06:18:44.289Z,-1.5
2023-03-07T06:19:51.379Z,-1.5
2023-03-07T06:20:58.411Z,-1.5
2023-03-07T06:22:05.591Z,-1.5
2023-03-07T06:23:13.371Z,-1.6
2023-03-07T06:24:19.298Z,-1.6
2023-03-07T06:25:26.372Z,-1.6
2023-03-07T06:26:33.499Z,-1.6
2023-03-07T06:27:40.566Z,-1.6
2023-03-07T06:28:47.191Z,-1.6
2023-03-07T06:29:54.309Z,-1.7
2023-03-07T06:31:01.488Z,-1.7
2023-03-07T06:32:08.566Z,-1.7
2023-03-07T06:33:15.651Z,-1.7
2023-03-07T06:34:22.159Z,-1.6
2023-03-07T06:35:29.264Z,-1.6
2023-03-07T06:36:36.364Z,-1.6
2023-03-07T06:37:43.458Z,-1.6
2023-03-07T06:38:50.672Z,-1.6
2023-03-07T06:39:57.188Z,-1.7
2023-03-07T06:42:11.339Z,-1.7
2023-03-07T06:43:18.562Z,-1.7
2023-03-07T06:44:25.626Z,-1.7
2023-03-07T06:45:32.236Z,-1.7
2023-03-07T06:46:39.291Z,-1.7
2023-03-07T06:47:46.391Z,-1.7
2023-03-07T06:50:00.590Z,-1.6
2023-03-07T06:51:07.176Z,-1.6
2023-03-07T06:52:14.319Z,-1.6
2023-03-07T06:53:21.453Z,-1.7
2023-03-07T06:54:28.491Z,-1.7
2023-03-07T06:55:35.626Z,-1.7
2023-03-07T06:56:44.853Z,-1.8
2023-03-07T06:57:49.293Z,-1.8
2023-03-07T06:58:56.456Z,-1.8
2023-03-07T07:00:03.535Z,-1.8
2023-03-07T07:01:10.661Z,-1.9
2023-03-07T07:02:17.419Z,-1.8
2023-03-07T07:03:24.332Z,-1.8
2023-03-07T07:04:31.376Z,-1.9
2023-03-07T07:05:38.468Z,-1.9
2023-03-07T07:06:45.617Z,-1.9
2023-03-07T07:07:52.757Z,-1.9
2023-03-07T07:08:59.269Z,-1.9
2023-03-07T07:10:06.405Z,-1.9
2023-03-07T07:11:13.568Z,-1.9
2023-03-07T07:12:20.655Z,-1.9
2023-03-07T07:13:27.273Z,-1.9
2023-03-07T07:14:34.388Z,-1.9
2023-03-07T07:15:41.454Z,-1.9
2023-03-07T07:16:48.536Z,-1.9
2023-03-07T07:17:55.637Z,-1.9
2023-03-07T07:19:02.294Z,-1.9
2023-03-07T07:20:09.324Z,-1.9
2023-03-07T07:21:16.503Z,-1.9
2023-03-07T07:22:23.567Z,-1.8
2023-03-07T07:23:30.648Z,-1.8
2023-03-07T07:24:37.251Z,-1.9
2023-03-07T07:25:44.322Z,-1.8
2023-03-07T07:26:51.539Z,-1.9
2023-03-07T07:27:58.531Z,-1.9
2023-03-07T07:29:05.636Z,-1.9
2023-03-07T07:30:12.208Z,-1.9
2023-03-07T07:31:19.320Z,-1.9
2023-03-07T07:32:26.579Z,-1.9
2023-03-07T07:33:33.575Z,-1.9
2023-03-07T07:34:41.441Z,-1.8
2023-03-07T07:35:47.244Z,-1.8
2023-03-07T07:36:54.341Z,-1.8
2023-03-07T07:38:01.781Z,-1.8
2023-03-07T07:39:08.727Z,-1.7
2023-03-07T07:40:15.657Z,-1.7
2023-03-07T07:41:22.251Z,-1.6
2023-03-07T07:42:32.141Z,-1.6
2023-03-07T07:43:36.518Z,-1.6
2023-03-07T07:44:43.602Z,-1.5
2023-03-07T07:45:50.172Z,-1.6
2023-03-07T07:46:57.248Z,-1.6
2023-03-07T07:48:04.430Z,-1.6
2023-03-07T07:49:11.469Z,-1.6
2023-03-07T07:50:18.580Z,-1.5
2023-03-07T07:51:25.198Z,-1.5
2023-03-07T07:52:32.302Z,-1.5
2023-03-07T07:53:39.414Z,-1.5
2023-03-07T07:54:46.558Z,-1.5
2023-03-07T07:55:53.596Z,-1.6
2023-03-07T07:57:00.144Z,-1.5
2023-03-07T07:58:07.353Z,-1.6
2023-03-07T07:59:14.454Z,-1.6
2023-03-07T08:00:21.526Z,-1.5
2023-03-07T08:01:28.595Z,-1.5
2023-03-07T08:02:35.368Z,-1.4
2023-03-07T08:03:42.404Z,-1.4
2023-03-07T08:04:49.409Z,-1.4
2023-03-07T08:05:56.554Z,-1.4
2023-03-07T08:07:03.687Z,-1.3
2023-03-07T08:08:10.230Z,-1.3
2023-03-07T08:10:24.431Z,-1.3
2023-03-07T08:11:31.540Z,-1.3
2023-03-07T08:12:38.621Z,-1.2
2023-03-07T08:13:45.323Z,-1.3
2023-03-07T08:14:52.387Z,-1.3
2023-03-07T08:15:59.558Z,-1.2
2023-03-07T08:17:06.592Z,-1.2
2023-03-07T08:18:13.667Z,-1.2
2023-03-07T08:19:20.161Z,-1.2
2023-03-07T08:20:27.403Z,-1.1
2023-03-07T08:21:34.458Z,-1.1
2023-03-07T08:22:41.545Z,-1.1
2023-03-07T08:23:48.649Z,-1.1
2023-03-07T08:24:55.215Z,-1.1
2023-03-07T08:26:02.343Z,-1
2023-03-07T08:27:09.383Z,-1
2023-03-07T08:28:16.561Z,-1
2023-03-07T08:29:23.621Z,-0.9
2023-03-07T08:30:30.216Z,-0.8
2023-03-07T08:31:37.338Z,-0.8
2023-03-07T08:32:44.477Z,-0.8
2023-03-07T08:33:51.618Z,-0.8
2023-03-07T08:34:58.628Z,-0.8
2023-03-07T08:36:05.286Z,-0.7
2023-03-07T08:37:12.317Z,-0.7
2023-03-07T08:38:19.429Z,-0.7
2023-03-07T08:39:26.544Z,-0.7
2023-03-07T08:40:33.709Z,-0.8
2023-03-07T08:41:40.194Z,-0.7
2023-03-07T08:42:47.361Z,-0.7
2023-03-07T08:43:54.556Z,-0.7
2023-03-07T08:45:01.567Z,-0.7
2023-03-07T08:46:08.690Z,-0.7
2023-03-07T08:47:15.282Z,-0.7
2023-03-07T08:48:22.437Z,-0.7
2023-03-07T08:49:29.506Z,-0.7
2023-03-07T08:50:36.553Z,-0.7
2023-03-07T08:51:43.668Z,-0.7
2023-03-07T08:52:50.210Z,-0.6
2023-03-07T08:53:57.492Z,-0.5
2023-03-07T08:55:04.534Z,-0.4
2023-03-07T08:56:11.635Z,-0.3
2023-03-07T08:57:18.665Z,0
2023-03-07T08:58:25.329Z,0.1
2023-03-07T08:59:32.353Z,0.3
2023-03-07T09:00:39.463Z,0.3
2023-03-07T09:01:46.601Z,0.4
2023-03-07T09:02:53.728Z,0.5
2023-03-07T09:04:00.476Z,0.4
2023-03-07T09:05:07.497Z,0.4
2023-03-07T09:06:14.514Z,0.4
2023-03-07T09:07:21.617Z,0.3
2023-03-07T09:08:28.809Z,0.3
2023-03-07T09:09:35.314Z,0.2
2023-03-07T09:10:42.359Z,0.2
2023-03-07T09:11:49.434Z,0.2
2023-03-07T09:12:56.576Z,0.2
2023-03-07T09:14:03.761Z,0.1
2023-03-07T09:16:17.558Z,0.1
2023-03-07T09:17:24.516Z,0.1
2023-03-07T09:18:31.773Z,0.2
2023-03-07T09:19:38.791Z,0.2
2023-03-07T09:20:45.329Z,0.2
2023-03-07T09:21:52.337Z,0.3
2023-03-07T09:22:59.476Z,0.4
2023-03-07T09:24:06.714Z,0.4
2023-03-07T09:25:13.847Z,0.5
2023-03-07T09:26:20.342Z,0.6
2023-03-07T09:27:27.361Z,0.7
2023-03-07T09:28:34.565Z,0.9
2023-03-07T09:29:41.653Z,1
2023-03-07T09:30:48.761Z,1
2023-03-07T09:31:55.332Z,1.1
2023-03-07T09:33:02.442Z,1.2
2023-03-07T09:34:09.571Z,1.2
2023-03-07T09:35:16.711Z,1.3
2023-03-07T09:36:23.784Z,1.4
2023-03-07T09:38:37.458Z,1.6
2023-03-07T09:39:44.601Z,1.6
2023-03-07T09:40:51.683Z,1.7
2023-03-07T09:41:58.819Z,1.7
2023-03-07T09:43:05.377Z,1.8
2023-03-07T09:44:12.484Z,1.9
2023-03-07T09:45:19.576Z,2
2023-03-07T09:46:26.662Z,2.1
2023-03-07T09:47:33.835Z,2.2
2023-03-07T09:48:40.380Z,2.2
2023-03-07T09:49:47.448Z,2.2
2023-03-07T09:50:56.861Z,2.3
2023-03-07T09:52:01.778Z,2.4
2023-03-07T09:53:08.820Z,2.4
2023-03-07T09:54:15.393Z,2.4
2023-03-07T09:55:22.457Z,2.4
2023-03-07T09:56:29.513Z,2.6
2023-03-07T09:57:36.718Z,2.8
2023-03-07T09:58:43.867Z,3
2023-03-07T09:59:50.892Z,3.2
2023-03-07T10:00:57.538Z,3.2
2023-03-07T10:02:04.645Z,3.2
2023-03-07T10:03:11.742Z,3.2
2023-03-07T10:04:18.848Z,3.2
2023-03-07T10:05:25.396Z,3
2023-03-07T10:06:32.564Z,2.8
2023-03-07T10:07:39.569Z,2.6
2023-03-07T10:08:46.754Z,2.6
2023-03-07T10:09:53.819Z,2.4
2023-03-07T10:11:00.506Z,2.3
2023-03-07T10:12:07.433Z,2.1
2023-03-07T10:13:14.586Z,2
2023-03-07T10:14:21.793Z,1.9
2023-03-07T10:15:28.924Z,1.8
2023-03-07T10:16:35.518Z,1.7
2023-03-07T10:17:42.498Z,1.6
2023-03-07T10:19:56.807Z,1.6
2023-03-07T10:21:03.313Z,1.7
2023-03-07T10:22:10.437Z,1.8
2023-03-07T10:23:17.502Z,1.9
2023-03-07T10:24:24.645Z,2
2023-03-07T10:25:31.671Z,2.1
2023-03-07T10:26:38.751Z,2.2
2023-03-07T10:27:45.429Z,2.3
2023-03-07T10:28:52.554Z,2.4
2023-03-07T10:29:59.543Z,2.4
2023-03-07T10:31:06.741Z,2.6
2023-03-07T10:32:13.898Z,2.7
2023-03-07T10:33:20.692Z,2.8
2023-03-07T10:34:28.153Z,2.8
2023-03-07T10:35:34.705Z,2.8
2023-03-07T10:36:41.692Z,3
2023-03-07T10:37:48.844Z,3
2023-03-07T10:38:55.688Z,2.9
2023-03-07T10:40:04.872Z,2.9
2023-03-07T10:41:09.712Z,2.8
2023-03-07T10:42:16.839Z,2.8
2023-03-07T10:43:23.277Z,2.7
2023-03-07T10:44:30.349Z,2.8
2023-03-07T10:45:37.525Z,3
2023-03-07T10:46:55.398Z,3
2023-03-07T10:47:51.783Z,2.9
2023-03-07T10:48:58.966Z,2.9
2023-03-07T10:50:05.522Z,3
2023-03-07T10:51:12.498Z,3
2023-03-07T10:52:19.570Z,3.1
2023-03-07T10:53:26.898Z,3
2023-03-07T10:54:33.388Z,3
2023-03-07T10:55:40.496Z,2.9
2023-03-07T10:56:47.477Z,2.9
2023-03-07T10:57:55.441Z,2.9
2023-03-07T10:59:01.770Z,2.9
2023-03-07T11:00:08.555Z,2.8
2023-03-07T11:01:15.484Z,2.7
2023-03-07T11:02:22.522Z,2.7
2023-03-07T11:03:31.229Z,2.7
2023-03-07T11:04:36.800Z,2.7
2023-03-07T11:05:43.309Z,2.7
2023-03-07T11:06:50.449Z,2.9
2023-03-07T11:07:57.573Z,3
2023-03-07T11:09:05.295Z,3.1
2023-03-07T11:10:11.742Z,3
2023-03-07T11:11:18.513Z,3
2023-03-07T11:12:25.505Z,2.9
2023-03-07T11:13:32.525Z,2.9
2023-03-07T11:14:39.683Z,2.9
2023-03-07T11:15:46.971Z,2.9
2023-03-07T11:16:53.319Z,2.7
2023-03-07T11:18:00.455Z,2.7
2023-03-07T11:19:07.541Z,2.6
2023-03-07T11:20:14.699Z,2.6
2023-03-07T11:21:21.744Z,2.7
2023-03-07T11:23:35.787Z,2.7
2023-03-07T11:24:42.544Z,2.7
2023-03-07T11:25:49.676Z,2.7
2023-03-07T11:26:56.769Z,2.7
2023-03-07T11:28:03.487Z,2.7
2023-03-07T11:29:10.560Z,2.7
2023-03-07T11:30:17.619Z,2.6
2023-03-07T11:31:24.867Z,2.5
2023-03-07T11:32:31.909Z,2.5
2023-03-07T11:33:49.496Z,2.4
2023-03-07T11:34:45.554Z,2.3
2023-03-07T11:35:52.701Z,2.1
2023-03-07T11:38:06.778Z,2.1
2023-03-07T11:38:08.956Z,2.1
2023-03-07T11:39:13.388Z,2
2023-03-07T11:40:20.598Z,1.9
2023-03-07T11:41:27.707Z,1.9
2023-03-07T11:43:42.076Z,1.9
2023-03-07T11:44:48.387Z,1.9
2023-03-07T11:45:55.526Z,2.1
2023-03-07T11:47:02.682Z,2.1
2023-03-07T11:48:09.727Z,2.1
2023-03-07T11:49:20.153Z,2.1
2023-03-07T11:50:23.372Z,2.1
2023-03-07T11:51:30.522Z,2.1
2023-03-07T11:52:37.611Z,2.1
2023-03-07T11:53:44.787Z,2.1
2023-03-07T11:54:51.870Z,2
2023-03-07T11:55:58.349Z,1.9
2023-03-07T11:57:05.524Z,1.7
2023-03-07T11:58:12.588Z,1.4
2023-03-07T11:59:19.768Z,1.1
2023-03-07T12:00:26.385Z,0.8
2023-03-07T12:01:33.386Z,0.6
2023-03-07T12:02:40.554Z,0.5
2023-03-07T12:03:47.644Z,0.3
2023-03-07T12:04:54.752Z,0.2
2023-03-07T12:06:01.404Z,0.2
2023-03-07T12:07:08.520Z,0.1
2023-03-07T12:08:15.537Z,0.1
2023-03-07T12:09:22.654Z,0.1
2023-03-07T12:10:29.742Z,0.1
2023-03-07T12:11:36.303Z,0.1
2023-03-07T12:12:43.481Z,0.1
2023-03-07T12:13:50.497Z,0.1
2023-03-07T12:14:57.581Z,0.2
2023-03-07T12:16:04.918Z,0.2
2023-03-07T12:17:11.509Z,0.2
2023-03-07T12:18:18.460Z,0.3
2023-03-07T12:19:25.563Z,0.3
2023-03-07T12:20:32.648Z,0.3
2023-03-07T12:21:39.886Z,0.3
2023-03-07T12:22:46.835Z,0.3
2023-03-07T12:23:53.495Z,0.3
2023-03-07T12:25:00.501Z,0.2
2023-03-07T12:27:14.884Z,0.1
2023-03-07T12:28:21.343Z,0
2023-03-07T12:29:28.404Z,0
2023-03-07T12:30:35.604Z,-0.1
2023-03-07T12:31:42.931Z,0
2023-03-07T12:32:49.931Z,0
2023-03-07T12:33:56.389Z,0.1
2023-03-07T12:35:03.447Z,0.1
2023-03-07T12:36:10.737Z,0.2
2023-03-07T12:37:17.721Z,0.2
2023-03-07T12:38:24.754Z,0.3
2023-03-07T12:39:31.370Z,0.3
2023-03-07T12:40:38.497Z,0.4
2023-03-07T12:41:45.632Z,0.4
2023-03-07T12:42:52.657Z,0.4
2023-03-07T12:43:59.844Z,0.4
2023-03-07T12:45:06.422Z,0.5
2023-03-07T12:46:13.464Z,0.4
2023-03-07T12:47:20.601Z,0.5
2023-03-07T12:48:27.817Z,0.4
2023-03-07T12:49:40.909Z,0.4
2023-03-07T12:50:41.410Z,0.4
2023-03-07T12:51:48.487Z,0.3
2023-03-07T12:52:55.614Z,0.3
2023-03-07T12:54:02.708Z,0.3
2023-03-07T12:55:09.806Z,0.3
2023-03-07T12:56:16.467Z,0.3
2023-03-07T12:58:30.607Z,0.4
2023-03-07T12:58:36.187Z,0.4
2023-03-07T12:59:37.714Z,0.5
2023-03-07T13:00:44.886Z,0.6
2023-03-07T13:01:51.422Z,0.7
2023-03-07T13:02:58.447Z,0.8
2023-03-07T13:04:05.804Z,0.9
2023-03-07T13:05:12.750Z,1
2023-03-07T13:06:19.758Z,1.1
2023-03-07T13:07:26.454Z,1.1
2023-03-07T13:08:33.655Z,1.1
2023-03-07T13:09:40.611Z,1.2
2023-03-07T13:11:54.844Z,1.3
2023-03-07T13:13:01.441Z,1.3
2023-03-07T13:14:08.447Z,1.3
2023-03-07T13:15:15.943Z,1.5
2023-03-07T13:16:22.779Z,1.5
2023-03-07T13:17:29.772Z,1.6
2023-03-07T13:18:36.449Z,1.7
2023-03-07T13:19:43.587Z,1.7
2023-03-07T13:20:50.692Z,1.7
2023-03-07T13:21:57.671Z,1.7
2023-03-07T13:23:04.920Z,1.7
2023-03-07T13:24:11.464Z,1.8
2023-03-07T13:25:18.472Z,1.9
2023-03-07T13:26:25.741Z,1.9
2023-03-07T13:27:32.236Z,2
2023-03-07T13:28:39.903Z,2.1
2023-03-07T13:30:53.628Z,2.3
2023-03-07T13:32:00.697Z,2.5
2023-03-07T13:33:07.714Z,2.7
2023-03-07T13:34:14.819Z,2.7
2023-03-07T13:35:21.480Z,2.8
2023-03-07T13:36:28.574Z,2.8
2023-03-07T13:37:37.331Z,2.8
2023-03-07T13:38:42.800Z,2.7
2023-03-07T13:39:49.827Z,2.8
2023-03-07T13:40:56.957Z,2.7
2023-03-07T13:42:03.601Z,2.7
2023-03-07T13:43:10.653Z,2.5
2023-03-07T13:44:17.702Z,2.4
2023-03-07T13:45:24.829Z,2.3
2023-03-07T13:46:31.549Z,2.1
2023-03-07T13:47:38.578Z,2.1
2023-03-07T13:48:45.630Z,2.1
2023-03-07T13:49:52.792Z,2
2023-03-07T13:50:59.819Z,1.9
2023-03-07T13:52:06.430Z,1.9
2023-03-07T13:53:13.549Z,1.8
2023-03-07T13:54:20.655Z,1.7
2023-03-07T13:55:27.721Z,1.6
2023-03-07T13:56:34.907Z,1.6
2023-03-07T13:57:41.442Z,1.5
2023-03-07T13:58:48.556Z,1.5
2023-03-07T13:59:55.721Z,1.5
2023-03-07T14:01:02.832Z,1.5
2023-03-07T14:02:09.864Z,1.5
2023-03-07T14:03:16.541Z,1.5
2023-03-07T14:04:38.463Z,1.5
2023-03-07T14:05:30.686Z,1.6
2023-03-07T14:06:37.878Z,1.6
2023-03-07T14:07:44.866Z,1.7
2023-03-07T14:08:51.619Z,1.7
2023-03-07T14:08:51.661Z,1.7
2023-03-07T14:09:58.589Z,1.6
2023-03-07T14:11:05.791Z,1.6
2023-03-07T14:12:12.768Z,1.7
2023-03-07T14:13:19.922Z,1.7
2023-03-07T14:14:26.577Z,1.8
2023-03-07T14:15:33.817Z,1.8
2023-03-07T14:16:40.690Z,1.8
2023-03-07T14:17:47.852Z,1.9
2023-03-07T14:18:54.380Z,2
2023-03-07T14:20:01.600Z,2.1
2023-03-07T14:21:08.556Z,2.1
2023-03-07T14:22:15.734Z,2.1
2023-03-07T14:23:22.826Z,2.2
2023-03-07T14:24:29.973Z,2.1
2023-03-07T14:25:36.741Z,2.1
2023-03-07T14:26:43.598Z,2
2023-03-07T14:27:50.662Z,1.9
2023-03-07T14:28:57.986Z,1.7
2023-03-07T14:30:04.592Z,1.6
2023-03-07T14:31:12.115Z,1.5
2023-03-07T14:32:18.747Z,1.3
2023-03-07T14:34:32.891Z,1.1
2023-03-07T14:35:39.402Z,1.1
2023-03-07T14:36:46.534Z,1.1
2023-03-07T14:37:53.614Z,1
2023-03-07T14:40:07.829Z,0.9
2023-03-07T14:41:14.409Z,0.9
2023-03-07T14:42:21.501Z,0.9
2023-03-07T14:43:28.633Z,0.9
2023-03-07T14:44:35.715Z,0.9
2023-03-07T14:45:42.880Z,0.9
2023-03-07T14:46:49.466Z,0.9
2023-03-07T14:47:56.550Z,0.9
2023-03-07T14:49:03.733Z,0.8
2023-03-07T14:50:10.173Z,0.7
2023-03-07T14:51:17.816Z,0.7
2023-03-07T14:52:30.795Z,0.6
2023-03-07T14:53:31.550Z,0.5
2023-03-07T14:54:38.595Z,0.5
2023-03-07T14:55:45.814Z,0.5
2023-03-07T14:56:52.826Z,0.4
2023-03-07T14:57:59.467Z,0.4
2023-03-07T14:59:08.491Z,0.3
2023-03-07T15:00:13.671Z,0.3
2023-03-07T15:01:20.981Z,0.2
2023-03-07T15:02:27.802Z,0.2
2023-03-07T15:03:34.474Z,0.2
2023-03-07T15:04:41.712Z,0.2
2023-03-07T15:05:48.660Z,0.3
2023-03-07T15:06:55.766Z,0.2
2023-03-07T15:08:02.871Z,0.3
2023-03-07T15:09:09.564Z,0.3
2023-03-07T15:10:16.596Z,0.3
2023-03-07T15:11:23.753Z,0.4
2023-03-07T15:12:30.746Z,0.4
2023-03-07T15:13:37.855Z,0.4
2023-03-07T15:14:44.470Z,0.5
2023-03-07T15:15:51.740Z,0.5
2023-03-07T15:16:58.623Z,0.4
2023-03-07T15:18:05.810Z,0.4
2023-03-07T15:19:12.843Z,0.4
2023-03-07T15:20:19.416Z,0.3
2023-03-07T15:21:26.681Z,0.3
2023-03-07T15:22:33.734Z,0.3
2023-03-07T15:23:40.804Z,0.3
2023-03-07T15:24:47.837Z,0.3
2023-03-07T15:25:54.546Z,0.3
2023-03-07T15:27:01.631Z,0.2
2023-03-07T15:28:08.675Z,0.3
2023-03-07T15:29:15.787Z,0.3
2023-03-07T15:30:22.879Z,0.3
2023-03-07T15:32:36.761Z,0.3
2023-03-07T15:33:43.747Z,0.3
2023-03-07T15:34:50.807Z,0.3
2023-03-07T15:35:57.955Z,0.3